Time;durP1;ratioP1;P1;durP2;ratioP2;P2;SDS_P1;SDS_P2;PMS_P1;PMS_P2;Temp;Humidity;BMP_temperature;BMP_pressure;BME280_temperature;BME280_humidity;BME280_pressure;Samples;Min_cycle;Max_cycle;Signal;HPM_P1;HPM_P2
2023/05/30 00:02:00;;;;;;;0.82;0.55;;;;;;;26.55;35.60;102571.41;5007869;28;97415;-76
2023/05/30 00:04:27;;;;;;;0.75;0.55;;;;;;;26.55;35.54;102568.66;5009162;28;97287;-76
2023/05/30 00:06:54;;;;;;;1.00;0.57;;;;;;;26.55;35.31;102565.03;5008365;28;96822;-76
2023/05/30 00:09:20;;;;;;;0.90;0.60;;;;;;;26.55;35.70;102568.66;5002124;28;97073;-76
2023/05/30 00:11:48;;;;;;;1.00;0.70;;;;;;;26.54;35.57;102575.19;4999362;28;98635;-76
2023/05/30 00:14:20;;;;;;;0.82;0.68;;;;;;;26.54;35.52;102577.94;4990526;28;97203;-77
2023/05/30 00:16:47;;;;;;;1.48;0.88;;;;;;;26.53;35.65;102576.22;5009383;28;96901;-76
2023/05/30 00:19:14;;;;;;;1.55;0.95;;;;;;;26.53;35.40;102575.38;4996629;28;99185;-76
2023/05/30 00:21:40;;;;;;;0.95;0.55;;;;;;;26.51;35.49;102575.53;5008795;28;99132;-76
2023/05/30 00:24:07;;;;;;;0.98;0.60;;;;;;;26.51;35.48;102583.81;5006734;28;96960;-76
2023/05/30 00:26:34;;;;;;;1.40;0.82;;;;;;;26.51;35.59;102578.28;5006728;28;100524;-77
2023/05/30 00:29:01;;;;;;;1.20;0.70;;;;;;;26.50;35.67;102575.72;5009210;28;96916;-76
2023/05/30 00:31:30;;;;;;;1.23;0.90;;;;;;;26.51;35.73;102580.19;4990747;28;96938;-76
2023/05/30 00:33:58;;;;;;;1.60;0.80;;;;;;;26.49;35.44;102572.09;5008807;28;96722;-76
2023/05/30 00:36:24;;;;;;;1.17;0.60;;;;;;;26.49;35.50;102583.09;5008251;28;96848;-76
2023/05/30 00:38:51;;;;;;;1.65;0.70;;;;;;;26.49;35.54;102579.50;5008950;28;97874;-76
2023/05/30 00:41:19;;;;;;;0.82;0.60;;;;;;;26.49;35.61;102580.34;5007269;28;97214;-76
2023/05/30 00:43:45;;;;;;;1.15;0.60;;;;;;;26.48;35.59;102572.25;5009780;28;97111;-76
2023/05/30 00:46:14;;;;;;;1.80;0.60;;;;;;;26.48;35.51;102573.13;5007048;28;98666;-76
2023/05/30 00:48:41;;;;;;;0.70;0.50;;;;;;;26.47;35.54;102576.91;5006481;28;99848;-76
2023/05/30 00:51:10;;;;;;;1.25;0.65;;;;;;;26.47;35.91;102579.66;4991043;28;97296;-76
2023/05/30 00:53:40;;;;;;;1.02;0.68;;;;;;;26.47;35.67;102576.91;5006254;28;96835;-76
2023/05/30 00:56:07;;;;;;;1.45;0.57;;;;;;;26.45;35.62;102573.47;5008278;28;98248;-76
2023/05/30 00:58:35;;;;;;;2.45;0.60;;;;;;;26.46;35.67;102577.09;5008343;28;96759;-76
2023/05/30 01:01:01;;;;;;;0.93;0.57;;;;;;;26.45;35.57;102581.72;5007213;28;97239;-76
2023/05/30 01:03:32;;;;;;;1.10;0.68;;;;;;;26.45;35.48;102586.38;4995292;28;96684;-76
2023/05/30 01:06:03;;;;;;;0.80;0.55;;;;;;;26.45;35.60;102590.00;5006753;28;98047;-77
2023/05/30 01:08:30;;;;;;;1.10;0.70;;;;;;;26.44;35.61;102596.53;4993221;28;99809;-76
2023/05/30 01:11:23;;;;;;;1.02;0.55;;;;;;;26.44;35.74;102593.78;5005222;28;98200;-76
2023/05/30 01:14:28;;;;;;;1.08;0.70;;;;;;;26.44;35.59;102592.91;5005583;28;96724;-77
2023/05/30 01:17:01;;;;;;;0.80;0.68;;;;;;;26.41;35.50;102591.38;4992388;28;96943;-76
2023/05/30 01:19:52;;;;;;;1.85;0.80;;;;;;;26.41;35.67;102591.38;5007951;28;97544;-76
2023/05/30 01:22:36;;;;;;;1.00;0.50;;;;;;;26.39;35.65;102593.44;5007483;28;96801;-76
2023/05/30 01:25:20;;;;;;;1.30;0.73;;;;;;;26.39;35.72;102593.44;5006266;28;97503;-76
2023/05/30 01:28:09;;;;;;;0.90;0.60;;;;;;;26.39;35.57;102585.16;5006357;28;97786;-77
2023/05/30 01:30:40;;;;;;;1.15;0.60;;;;;;;26.38;35.67;102588.09;4990209;28;97765;-77
2023/05/30 01:33:08;;;;;;;0.85;0.60;;;;;;;26.38;35.52;102591.72;5008959;28;96741;-76
2023/05/30 01:35:35;;;;;;;1.27;0.65;;;;;;;26.38;35.74;102597.22;5011478;28;96914;-76
2023/05/30 01:38:02;;;;;;;0.80;0.60;;;;;;;26.39;35.60;102587.06;4993566;28;100514;-76
2023/05/30 01:40:30;;;;;;;1.08;0.65;;;;;;;26.39;35.70;102593.44;5011643;28;96772;-76
2023/05/30 01:43:22;;;;;;;1.77;0.70;;;;;;;26.39;35.70;102585.16;5010084;28;96779;-76
2023/05/30 01:46:00;;;;;;;0.80;0.50;;;;;;;26.38;35.74;102588.97;5006213;28;96920;-76
2023/05/30 01:48:41;;;;;;;0.90;0.55;;;;;;;26.38;35.59;102585.34;5011355;28;97340;-77
2023/05/30 01:51:15;;;;;;;1.05;0.50;;;;;;;26.37;35.55;102592.75;4993301;28;98204;-76
2023/05/30 01:53:48;;;;;;;0.80;0.60;;;;;;;26.37;35.76;102592.75;5003570;28;98364;-76
2023/05/30 01:56:16;;;;;;;1.25;0.60;;;;;;;26.37;35.71;102594.63;5009756;28;96933;-76
2023/05/30 01:58:47;;;;;;;1.10;0.60;;;;;;;26.37;35.64;102591.88;5007259;28;97503;-76
2023/05/30 02:01:15;;;;;;;0.88;0.50;;;;;;;26.36;35.50;102599.28;5009133;28;99519;-77
2023/05/30 02:03:42;;;;;;;1.30;0.70;;;;;;;26.36;35.64;102606.69;5006418;28;96774;-77
2023/05/30 02:06:09;;;;;;;1.40;0.60;;;;;;;26.36;35.72;102603.94;5009465;28;96970;-76
2023/05/30 02:08:38;;;;;;;1.02;0.60;;;;;;;26.36;35.87;102614.94;4989747;28;100106;-76
2023/05/30 02:11:04;;;;;;;0.68;0.45;;;;;;;26.35;35.82;102604.97;5007737;28;97835;-76
2023/05/30 02:13:31;;;;;;;0.75;0.63;;;;;;;26.34;35.65;102609.63;5010899;28;96789;-76
2023/05/30 02:15:57;;;;;;;0.98;0.60;;;;;;;26.34;35.58;102614.25;5009474;28;96737;-77
2023/05/30 02:18:27;;;;;;;1.20;0.68;;;;;;;26.34;35.66;102628.91;4991805;28;99282;-77
2023/05/30 02:20:54;;;;;;;0.80;0.55;;;;;;;26.34;35.50;102622.53;5008739;28;98466;-76
2023/05/30 02:23:21;;;;;;;0.93;0.70;;;;;;;26.34;35.59;102617.03;5008918;28;97035;-77
2023/05/30 02:25:48;;;;;;;0.93;0.45;;;;;;;26.33;35.77;102615.28;5009019;28;97003;-76
2023/05/30 02:28:15;;;;;;;0.68;0.50;;;;;;;26.33;35.57;102620.81;5008905;28;99311;-76
2023/05/30 02:30:41;;;;;;;0.88;0.60;;;;;;;26.34;35.92;102625.28;4992011;28;98976;-76
2023/05/30 02:33:08;;;;;;;0.80;0.52;;;;;;;26.32;35.81;102619.91;4987436;28;97281;-76
2023/05/30 02:35:35;;;;;;;0.95;0.50;;;;;;;26.32;35.56;102622.66;5009650;28;97152;-77
2023/05/30 02:38:01;;;;;;;0.98;0.65;;;;;;;26.31;35.66;102615.44;5008817;28;96862;-76
2023/05/30 02:40:28;;;;;;;0.77;0.50;;;;;;;26.32;35.62;102621.81;5006150;28;99517;-76
2023/05/30 02:42:54;;;;;;;0.80;0.50;;;;;;;26.31;35.42;102623.69;5010108;28;96750;-76
2023/05/30 02:45:22;;;;;;;1.25;0.70;;;;;;;26.32;35.69;102621.81;5007754;28;96912;-76
2023/05/30 02:47:49;;;;;;;1.08;0.60;;;;;;;26.31;35.27;102625.59;5008743;28;99380;-76
2023/05/30 02:50:16;;;;;;;0.70;0.50;;;;;;;26.29;35.67;102629.38;4992213;28;98666;-76
2023/05/30 02:52:43;;;;;;;0.90;0.70;;;;;;;26.31;35.78;102622.84;5008302;28;97967;-77
2023/05/30 02:55:12;;;;;;;0.93;0.50;;;;;;;26.29;35.56;102629.38;5010886;28;96910;-76
2023/05/30 02:57:58;;;;;;;0.80;0.68;;;;;;;26.27;35.81;102628.69;5009053;28;96774;-76
2023/05/30 03:00:34;;;;;;;1.80;0.60;;;;;;;26.26;35.67;102626.09;4993521;28;96825;-76
2023/05/30 03:03:09;;;;;;;0.80;0.70;;;;;;;26.26;35.69;102623.34;5009115;28;96937;-76
2023/05/30 03:05:38;;;;;;;0.95;0.60;;;;;;;26.27;35.67;102630.56;5008436;28;97535;-76
2023/05/30 03:08:08;;;;;;;1.05;0.55;;;;;;;26.26;35.33;102628.84;5002355;28;97012;-77
2023/05/30 03:10:50;;;;;;;1.40;0.60;;;;;;;26.25;35.75;102627.13;5007715;28;98436;-77
2023/05/30 03:13:17;;;;;;;0.93;0.60;;;;;;;26.26;35.62;102628.84;5009645;28;97022;-77
2023/05/30 03:15:44;;;;;;;1.13;0.50;;;;;;;26.25;35.57;102627.13;5007546;28;96853;-76
2023/05/30 03:18:11;;;;;;;0.93;0.70;;;;;;;26.24;35.45;102625.41;4990925;28;99907;-76
2023/05/30 03:20:37;;;;;;;1.00;0.60;;;;;;;26.25;35.50;102624.38;5007359;28;99153;-76
2023/05/30 03:23:04;;;;;;;1.23;0.45;;;;;;;26.24;35.39;102620.75;5006771;28;97112;-76
2023/05/30 03:25:32;;;;;;;1.02;0.60;;;;;;;26.24;35.53;102625.41;5007027;28;97309;-76
2023/05/30 03:27:59;;;;;;;0.77;0.50;;;;;;;26.24;35.62;102623.50;5004657;28;99712;-76
2023/05/30 03:30:27;;;;;;;0.88;0.60;;;;;;;26.23;35.66;102627.28;5007352;28;99054;-77
2023/05/30 03:32:59;;;;;;;0.80;0.52;;;;;;;26.23;35.65;102634.69;4994087;28;97071;-76
2023/05/30 03:35:26;;;;;;;1.10;0.65;;;;;;;26.22;35.64;102639.34;5008666;28;96825;-76
2023/05/30 03:37:53;;;;;;;0.65;0.60;;;;;;;26.23;35.57;102641.06;4991183;28;100490;-76
2023/05/30 03:40:19;;;;;;;1.88;0.68;;;;;;;26.23;36.17;102645.72;4989557;28;100590;-76
2023/05/30 03:42:46;;;;;;;1.13;0.50;;;;;;;26.23;35.76;102656.72;4991747;28;96845;-76
2023/05/30 03:45:13;;;;;;;0.75;0.52;;;;;;;26.22;35.66;102647.59;5008158;28;97385;-76
2023/05/30 03:47:39;;;;;;;0.70;0.50;;;;;;;26.21;35.64;102643.13;4998710;28;100674;-76
2023/05/30 03:50:06;;;;;;;1.58;0.65;;;;;;;26.23;35.65;102645.72;5008102;28;99118;-76
2023/05/30 03:52:33;;;;;;;0.95;0.50;;;;;;;26.22;35.60;102655.00;5007932;28;96931;-76
2023/05/30 03:55:00;;;;;;;0.88;0.70;;;;;;;26.21;35.71;102656.91;5002274;28;98449;-76
2023/05/30 03:57:26;;;;;;;1.13;0.60;;;;;;;26.21;35.56;102653.28;5006866;28;99705;-76
2023/05/30 03:59:53;;;;;;;1.05;0.70;;;;;;;26.22;35.87;102663.28;5003235;28;97205;-76
2023/05/30 04:02:19;;;;;;;0.47;0.40;;;;;;;26.20;35.62;102659.81;5007059;28;97392;-77
2023/05/30 04:04:46;;;;;;;0.88;0.40;;;;;;;26.20;35.62;102651.56;5009108;28;97139;-77
2023/05/30 04:07:12;;;;;;;0.80;0.50;;;;;;;26.20;35.61;102657.94;5008388;28;97574;-76
2023/05/30 04:09:39;;;;;;;1.05;0.70;;;;;;;26.20;35.62;102660.69;5004881;28;96744;-76
2023/05/30 04:12:06;;;;;;;0.50;0.50;;;;;;;26.20;35.54;102651.56;5009609;28;96735;-77
2023/05/30 04:14:33;;;;;;;0.80;0.65;;;;;;;26.19;35.43;102658.09;5007884;28;97293;-76
2023/05/30 04:17:00;;;;;;;1.50;0.60;;;;;;;26.18;35.57;102653.63;5004286;28;100532;-76
2023/05/30 04:19:26;;;;;;;0.80;0.57;;;;;;;26.19;35.46;102652.59;5009553;28;97073;-76
2023/05/30 04:21:53;;;;;;;0.80;0.60;;;;;;;26.18;35.59;102653.63;5007410;28;96840;-76
2023/05/30 04:24:20;;;;;;;0.95;0.60;;;;;;;26.18;35.60;102654.47;4991294;28;97156;-76
2023/05/30 04:26:48;;;;;;;0.88;0.60;;;;;;;26.18;35.80;102653.63;5007241;28;100604;-76
2023/05/30 04:29:15;;;;;;;0.70;0.40;;;;;;;26.18;35.21;102654.47;5003770;28;97834;-76
2023/05/30 04:31:43;;;;;;;0.93;0.60;;;;;;;26.17;35.77;102652.75;4991019;28;96673;-76
2023/05/30 04:34:11;;;;;;;0.68;0.50;;;;;;;26.17;35.51;102654.66;5008872;28;96632;-76
2023/05/30 04:36:38;;;;;;;1.10;0.50;;;;;;;26.16;35.56;102651.03;5006109;28;99613;-76
2023/05/30 04:39:05;;;;;;;0.80;0.50;;;;;;;26.17;35.44;102660.16;4997300;28;96920;-76
2023/05/30 04:41:33;;;;;;;0.73;0.50;;;;;;;26.17;35.61;102660.16;5007470;28;96877;-76
2023/05/30 04:44:00;;;;;;;1.27;0.80;;;;;;;26.16;35.28;102655.69;5001783;28;98354;-77
2023/05/30 04:46:28;;;;;;;1.08;0.50;;;;;;;26.15;35.43;102660.31;5006248;28;100463;-76
2023/05/30 04:48:58;;;;;;;1.50;0.63;;;;;;;26.16;35.54;102666.69;5008949;28;96714;-76
2023/05/30 04:51:25;;;;;;;0.98;0.60;;;;;;;26.15;35.54;102664.97;5008600;28;97622;-76
2023/05/30 04:53:53;;;;;;;0.50;0.40;;;;;;;26.15;35.42;102660.31;5007274;28;97013;-76
2023/05/30 04:56:20;;;;;;;0.95;0.50;;;;;;;26.15;35.40;102659.47;4990133;28;98926;-76
2023/05/30 04:58:48;;;;;;;0.85;0.60;;;;;;;26.14;35.43;102664.09;5007340;28;96942;-76
2023/05/30 05:01:18;;;;;;;0.50;0.50;;;;;;;26.13;35.33;102656.88;4990463;28;96796;-76
2023/05/30 05:03:45;;;;;;;1.10;0.63;;;;;;;26.14;35.58;102657.75;5007404;28;97094;-76
2023/05/30 05:06:13;;;;;;;0.98;0.52;;;;;;;26.14;35.62;102657.75;5007046;28;97892;-76
2023/05/30 05:08:40;;;;;;;0.95;0.40;;;;;;;26.14;35.52;102661.34;5009869;28;96746;-76
2023/05/30 05:11:07;;;;;;;0.98;0.70;;;;;;;26.14;35.57;102652.22;5011690;28;97268;-77
2023/05/30 05:13:35;;;;;;;1.05;0.50;;;;;;;26.14;35.51;102654.97;5010340;28;97090;-76
2023/05/30 05:16:04;;;;;;;0.47;0.30;;;;;;;26.13;35.52;102656.88;5007779;28;96915;-77
2023/05/30 05:18:31;;;;;;;0.63;0.43;;;;;;;26.14;35.51;102654.97;5009890;28;96777;-76
2023/05/30 05:20:58;;;;;;;0.80;0.50;;;;;;;26.13;35.19;102661.53;5010200;28;96998;-76
2023/05/30 05:23:27;;;;;;;0.77;0.60;;;;;;;26.13;35.43;102658.78;5012187;28;97132;-76
2023/05/30 05:25:55;;;;;;;1.08;0.60;;;;;;;26.13;35.66;102661.53;5011329;28;97114;-76
2023/05/30 05:28:22;;;;;;;0.90;0.60;;;;;;;26.13;35.70;102661.53;5008300;28;97128;-77
2023/05/30 05:30:49;;;;;;;1.00;0.60;;;;;;;26.12;35.51;102660.66;5011228;28;97162;-76
2023/05/30 05:33:15;;;;;;;1.05;0.60;;;;;;;26.12;35.59;102655.16;5009175;28;98568;-77
2023/05/30 05:35:45;;;;;;;0.57;0.40;;;;;;;26.12;35.47;102663.41;5007886;28;97066;-77
2023/05/30 05:38:13;;;;;;;1.00;0.50;;;;;;;26.12;35.69;102668.06;4989941;28;99201;-77
2023/05/30 05:40:40;;;;;;;0.82;0.45;;;;;;;26.11;35.50;102664.44;5012126;28;96714;-77
2023/05/30 05:43:07;;;;;;;1.00;0.50;;;;;;;26.11;35.52;102667.19;4993174;28;97369;-76
2023/05/30 05:45:33;;;;;;;0.70;0.60;;;;;;;26.10;35.35;102667.38;4994870;28;96720;-77
2023/05/30 05:48:00;;;;;;;0.75;0.47;;;;;;;26.11;35.61;102669.09;4997790;28;99141;-76
2023/05/30 05:50:27;;;;;;;1.92;0.40;;;;;;;26.11;35.74;102663.59;5011908;28;96736;-75
2023/05/30 05:52:54;;;;;;;1.05;0.60;;;;;;;26.10;35.82;102668.22;5011422;28;96867;-75
2023/05/30 05:55:21;;;;;;;0.63;0.50;;;;;;;26.10;35.40;102662.72;4992848;28;98501;-75
2023/05/30 05:57:47;;;;;;;0.88;0.50;;;;;;;26.10;35.50;102670.97;5009220;28;96903;-75
2023/05/30 06:00:15;;;;;;;0.95;0.52;;;;;;;26.11;35.42;102669.09;5010451;28;96736;-75
2023/05/30 06:02:42;;;;;;;1.15;0.60;;;;;;;26.11;35.39;102671.84;5007246;28;96781;-76
2023/05/30 06:05:09;;;;;;;0.82;0.57;;;;;;;26.10;35.56;102672.88;5010682;28;98331;-75
2023/05/30 06:07:35;;;;;;;1.05;0.63;;;;;;;26.10;35.73;102673.72;4999643;28;96821;-75
2023/05/30 06:10:02;;;;;;;0.80;0.60;;;;;;;26.10;35.45;102672.88;5008940;28;97111;-76
2023/05/30 06:12:29;;;;;;;0.73;0.50;;;;;;;26.09;35.23;102674.75;5010813;28;97089;-75
2023/05/30 06:14:55;;;;;;;1.05;0.60;;;;;;;26.09;34.95;102669.25;5010757;28;98226;-75
2023/05/30 06:17:22;;;;;;;0.98;0.60;;;;;;;26.10;35.54;102675.63;5006915;28;97269;-75
2023/05/30 06:19:52;;;;;;;0.73;0.55;;;;;;;26.09;35.35;102663.75;5007997;28;96840;-75
2023/05/30 06:22:18;;;;;;;1.27;0.60;;;;;;;26.10;35.42;102670.13;5011066;28;96824;-75
2023/05/30 06:24:46;;;;;;;1.15;0.60;;;;;;;26.09;35.64;102665.63;5005703;28;97175;-75
2023/05/30 06:27:13;;;;;;;0.57;0.43;;;;;;;26.10;35.28;102673.72;5009061;28;99308;-75
2023/05/30 06:29:41;;;;;;;1.05;0.45;;;;;;;26.10;35.28;102665.47;5000325;28;97217;-75
2023/05/30 06:32:09;;;;;;;0.93;0.60;;;;;;;26.09;35.53;102666.50;5008217;28;97023;-75
2023/05/30 06:34:44;;;;;;;0.77;0.50;;;;;;;26.08;35.21;102678.53;5011276;28;96798;-75
2023/05/30 06:37:12;;;;;;;0.60;0.40;;;;;;;26.09;35.56;102673.91;5010704;28;96779;-75
2023/05/30 06:39:39;;;;;;;1.27;0.70;;;;;;;26.10;35.38;102683.88;5011554;28;96833;-75
2023/05/30 06:42:08;;;;;;;0.95;0.40;;;;;;;26.09;35.53;102672.00;5010047;28;98327;-75
2023/05/30 06:44:42;;;;;;;0.98;0.50;;;;;;;26.09;35.37;102676.66;5008245;28;97460;-75
2023/05/30 06:47:08;;;;;;;0.77;0.43;;;;;;;26.10;35.44;102681.13;4992901;28;99487;-75
2023/05/30 06:49:35;;;;;;;0.90;0.30;;;;;;;26.09;35.63;102674.75;5011030;28;96611;-75
2023/05/30 06:52:02;;;;;;;0.88;0.52;;;;;;;26.09;35.47;102673.91;5010124;28;97095;-75
2023/05/30 06:54:29;;;;;;;1.30;0.65;;;;;;;26.09;35.59;102682.16;5008824;28;99926;-75
2023/05/30 06:57:00;;;;;;;1.08;0.60;;;;;;;26.09;35.42;102687.66;5010700;28;97367;-75
2023/05/30 06:59:26;;;;;;;0.70;0.50;;;;;;;26.08;35.13;102685.94;5010704;28;96594;-75
2023/05/30 07:01:53;;;;;;;1.25;0.50;;;;;;;26.09;35.06;102690.41;5009503;28;97334;-75
2023/05/30 07:04:20;;;;;;;0.93;0.50;;;;;;;26.08;35.22;102686.81;5007550;28;97897;-74
2023/05/30 07:06:46;;;;;;;1.20;0.50;;;;;;;26.08;35.34;102688.69;5010929;28;97981;-74
2023/05/30 07:09:13;;;;;;;0.68;0.50;;;;;;;26.09;35.31;102682.16;5008904;28;97291;-75
2023/05/30 07:11:39;;;;;;;1.08;0.60;;;;;;;26.10;35.42;102689.41;5011118;28;96664;-74
2023/05/30 07:14:06;;;;;;;0.60;0.40;;;;;;;26.10;35.53;102681.13;5009812;28;97941;-75
2023/05/30 07:16:33;;;;;;;0.80;0.50;;;;;;;26.08;35.59;102689.56;5005601;28;96785;-75
2023/05/30 07:19:00;;;;;;;0.65;0.50;;;;;;;26.09;35.41;102690.41;5008911;28;97192;-75
2023/05/30 07:21:38;;;;;;;0.70;0.50;;;;;;;26.09;35.36;102688.53;5009525;28;96811;-75
2023/05/30 07:24:05;;;;;;;3.47;0.90;;;;;;;26.09;35.31;102693.19;5008607;28;97647;-76
2023/05/30 07:26:33;;;;;;;1.77;0.93;;;;;;;26.09;35.30;102701.44;5010194;28;97595;-78
2023/05/30 07:29:00;;;;;;;1.85;0.80;;;;;;;26.08;35.36;102703.31;5011461;28;96711;-78
2023/05/30 07:31:26;;;;;;;2.38;0.98;;;;;;;26.07;35.18;102696.09;5011218;28;96819;-72
2023/05/30 07:33:53;;;;;;;3.30;0.80;;;;;;;26.07;35.07;102696.09;5009706;28;96669;-72
2023/05/30 07:36:20;;;;;;;2.25;0.85;;;;;;;26.07;35.17;102693.34;5012181;28;96846;-80
2023/05/30 07:38:46;;;;;;;2.22;0.82;;;;;;;26.06;35.08;102688.88;4993031;28;96626;-78
2023/05/30 07:41:13;;;;;;;1.90;1.00;;;;;;;26.07;35.12;102700.75;5009748;28;97018;-80
2023/05/30 07:43:39;;;;;;;3.55;1.20;;;;;;;26.06;34.95;102696.25;5013458;28;96786;-80
2023/05/30 07:46:06;;;;;;;2.00;1.10;;;;;;;26.05;35.32;102700.91;5016939;28;96762;-80
2023/05/30 07:48:33;;;;;;;2.72;0.90;;;;;;;26.05;34.90;102700.03;4998372;28;97845;-80
2023/05/30 07:50:59;;;;;;;2.53;0.90;;;;;;;26.03;35.20;102694.69;5017554;28;96894;-80
2023/05/30 07:53:26;;;;;;;3.45;1.02;;;;;;;26.03;35.18;102697.47;5013777;28;97897;-80
2023/05/30 07:55:52;;;;;;;2.78;1.10;;;;;;;26.03;35.37;102705.72;5015382;28;99133;-80
2023/05/30 07:58:19;;;;;;;2.65;0.98;;;;;;;26.03;35.04;102704.84;4997782;28;97225;-79
2023/05/30 08:00:46;;;;;;;1.58;0.98;;;;;;;26.02;35.01;102700.38;5014760;28;96877;-79
2023/05/30 08:03:12;;;;;;;2.90;1.33;;;;;;;26.02;35.21;102692.13;5016167;28;98052;-80
2023/05/30 08:05:39;;;;;;;1.52;0.75;;;;;;;26.00;35.14;102685.88;5016366;28;96743;-80
2023/05/30 08:08:07;;;;;;;2.42;0.90;;;;;;;26.01;35.05;102690.34;4998478;28;97049;-80
2023/05/30 08:10:33;;;;;;;3.45;1.20;;;;;;;26.00;35.14;102681.22;5015598;28;97146;-80
2023/05/30 08:13:02;;;;;;;2.97;1.02;;;;;;;26.00;34.98;102683.13;5014740;28;98132;-80
2023/05/30 08:15:28;;;;;;;2.15;0.90;;;;;;;25.98;34.84;102678.66;5011997;28;97102;-79
2023/05/30 08:18:00;;;;;;;2.90;0.90;;;;;;;25.98;35.07;102675.03;5013716;28;96841;-79
2023/05/30 08:20:26;;;;;;;2.58;1.00;;;;;;;25.97;34.98;102674.16;4996408;28;97275;-80
2023/05/30 08:22:53;;;;;;;2.10;0.82;;;;;;;25.97;35.04;102674.16;5014221;28;97919;-79
2023/05/30 08:25:23;;;;;;;1.55;1.00;;;;;;;25.97;35.14;102681.56;5014085;28;96716;-81
2023/05/30 08:27:53;;;;;;;2.65;0.90;;;;;;;25.95;35.21;102673.47;5016039;28;96765;-81
2023/05/30 08:30:20;;;;;;;2.30;1.13;;;;;;;25.96;35.18;102672.44;5016957;28;96683;-82
2023/05/30 08:32:47;;;;;;;2.65;1.13;;;;;;;25.96;34.65;102674.34;5015076;28;97391;-81
2023/05/30 08:35:13;;;;;;;2.38;1.10;;;;;;;25.95;34.75;102680.88;5014912;28;98596;-81
2023/05/30 08:37:41;;;;;;;1.92;0.90;;;;;;;25.96;35.11;102674.34;5011866;28;96492;-79
2023/05/30 08:40:12;;;;;;;1.98;1.00;;;;;;;25.97;34.73;102676.06;5015814;28;97141;-80
2023/05/30 08:42:40;;;;;;;2.33;1.20;;;;;;;25.96;34.83;102671.59;5012680;28;97166;-79
2023/05/30 08:45:07;;;;;;;1.75;0.90;;;;;;;25.95;34.89;102669.84;5015951;28;96737;-79
2023/05/30 08:47:35;;;;;;;2.35;1.10;;;;;;;25.95;35.03;102667.09;5014616;28;96812;-79
2023/05/30 08:50:03;;;;;;;3.22;1.10;;;;;;;25.94;35.06;102674.50;5016859;28;97255;-79
2023/05/30 08:52:31;;;;;;;3.13;0.80;;;;;;;25.95;34.97;102665.22;5017681;28;97145;-80
2023/05/30 08:55:11;;;;;;;2.00;1.10;;;;;;;25.95;35.01;102669.84;5020686;28;97091;-81
2023/05/30 08:57:51;;;;;;;3.17;1.20;;;;;;;25.94;34.82;102663.50;5013802;28;96807;-80
2023/05/30 09:00:18;;;;;;;2.30;1.25;;;;;;;25.93;34.93;102660.91;5011229;28;97246;-80
2023/05/30 09:02:45;;;;;;;1.88;1.17;;;;;;;25.93;35.01;102661.75;4994871;28;98068;-79
2023/05/30 09:05:15;;;;;;;2.35;0.82;;;;;;;25.93;34.91;102667.28;5011025;28;96632;-80
2023/05/30 09:07:43;;;;;;;2.97;1.13;;;;;;;25.93;35.11;102667.28;5011077;28;97946;-80
2023/05/30 09:10:11;;;;;;;2.15;1.02;;;;;;;25.93;34.83;102653.50;5013971;28;96764;-79
2023/05/30 09:12:40;;;;;;;5.07;1.30;;;;;;;25.94;35.11;102651.63;5009529;28;97858;-80
2023/05/30 09:15:07;;;;;;;3.05;1.30;;;;;;;25.94;35.07;102654.38;5012570;28;97288;-79
2023/05/30 09:17:34;;;;;;;2.50;1.02;;;;;;;25.93;35.05;102653.50;5010807;28;96933;-79
2023/05/30 09:20:00;;;;;;;1.88;1.13;;;;;;;25.93;34.99;102644.38;5010763;28;96842;-79
2023/05/30 09:22:28;;;;;;;2.35;1.20;;;;;;;25.93;35.01;102650.75;5011127;28;98837;-79
2023/05/30 09:24:59;;;;;;;2.22;1.20;;;;;;;25.94;35.04;102646.09;5011096;28;99363;-79
2023/05/30 09:27:28;;;;;;;4.10;1.40;;;;;;;25.93;34.93;102648.00;5012222;28;96829;-80
2023/05/30 09:29:56;;;;;;;2.03;1.38;;;;;;;25.93;34.81;102645.25;5013072;28;97044;-79
2023/05/30 09:32:29;;;;;;;1.60;1.20;;;;;;;25.92;34.94;102640.78;5011762;28;98008;-80
2023/05/30 09:34:57;;;;;;;1.83;1.08;;;;;;;25.92;35.12;102638.03;5012785;28;97470;-79
2023/05/30 09:37:24;;;;;;;1.92;1.23;;;;;;;25.92;35.04;102645.41;5012577;28;97152;-79
2023/05/30 09:40:17;;;;;;;2.20;1.30;;;;;;;25.93;34.98;102639.75;5011414;28;96772;-79
2023/05/30 09:42:48;;;;;;;3.53;1.45;;;;;;;25.92;35.13;102632.50;5009729;28;96883;-79
2023/05/30 09:45:18;;;;;;;2.20;1.30;;;;;;;25.91;34.83;102624.41;5010521;28;98817;-79
2023/05/30 09:47:46;;;;;;;2.28;1.10;;;;;;;25.91;34.94;102630.78;5010609;28;97616;-79
2023/05/30 09:50:15;;;;;;;3.63;1.73;;;;;;;25.92;34.98;102631.66;5009337;28;96819;-79
2023/05/30 09:52:43;;;;;;;2.88;1.08;;;;;;;25.91;34.82;102625.28;5010247;28;97749;-79
2023/05/30 09:55:13;;;;;;;2.33;1.27;;;;;;;25.91;34.83;102622.53;4984729;28;99336;-79
2023/05/30 09:57:44;;;;;;;2.60;1.20;;;;;;;25.91;34.74;102628.03;5010100;28;97011;-80
2023/05/30 10:00:15;;;;;;;2.80;1.30;;;;;;;25.91;34.98;102628.03;5011282;28;96775;-80
2023/05/30 10:02:44;;;;;;;2.88;1.40;;;;;;;25.91;34.79;102624.41;5012004;28;97516;-79
2023/05/30 10:05:19;;;;;;;2.17;1.08;;;;;;;25.91;34.74;102622.53;5011241;28;96996;-80
2023/05/30 10:07:48;;;;;;;2.38;1.50;;;;;;;25.90;34.96;102629.06;5009486;28;96867;-80
2023/05/30 10:10:16;;;;;;;2.75;1.27;;;;;;;25.90;34.79;102623.56;5010613;28;96801;-80
2023/05/30 10:12:51;;;;;;;2.53;1.45;;;;;;;25.91;34.78;102613.41;5009948;28;97854;-79
2023/05/30 10:15:20;;;;;;;2.22;1.42;;;;;;;25.90;35.04;102623.56;5009918;28;96819;-79
2023/05/30 10:17:53;;;;;;;3.10;1.60;;;;;;;25.89;35.00;102616.31;5010386;28;96724;-79
2023/05/30 10:20:23;;;;;;;2.47;1.30;;;;;;;25.89;34.87;102605.31;5010196;28;96684;-79
2023/05/30 10:22:54;;;;;;;1.73;1.30;;;;;;;25.89;34.90;102608.06;4999241;28;96856;-79
2023/05/30 10:25:21;;;;;;;4.18;1.60;;;;;;;25.88;34.77;102620.09;5011861;28;96569;-80
2023/05/30 10:27:51;;;;;;;3.40;1.40;;;;;;;25.89;34.93;102616.31;5010774;28;97192;-80
2023/05/30 10:30:23;;;;;;;3.95;1.48;;;;;;;25.89;34.87;102616.31;5011628;28;96763;-79
2023/05/30 10:33:01;;;;;;;1.98;1.17;;;;;;;25.89;34.99;102618.22;5001800;28;97128;-79
2023/05/30 10:35:29;;;;;;;2.05;1.33;;;;;;;25.88;34.90;102613.75;5011349;28;96722;-80
2023/05/30 10:37:59;;;;;;;2.92;1.38;;;;;;;25.89;34.78;102607.22;5011802;28;96686;-79
2023/05/30 10:40:57;;;;;;;1.60;1.05;;;;;;;25.88;34.74;102603.59;4993723;28;96885;-79
2023/05/30 10:43:42;;;;;;;2.15;1.40;;;;;;;25.87;34.74;102592.75;5011387;28;98712;-79
2023/05/30 10:46:27;;;;;;;3.28;1.52;;;;;;;25.87;34.82;102601.88;5010330;28;97103;-79
2023/05/30 10:48:57;;;;;;;2.00;1.25;;;;;;;25.84;34.87;102602.19;5012240;28;97856;-80
2023/05/30 10:51:24;;;;;;;3.13;1.58;;;;;;;25.85;34.83;102595.66;5011823;28;96621;-79
2023/05/30 10:53:51;;;;;;;2.35;1.45;;;;;;;25.86;34.91;102591.88;5009102;28;97204;-79
2023/05/30 10:56:34;;;;;;;2.85;1.45;;;;;;;25.86;34.82;102586.38;5011087;28;97762;-79
2023/05/30 10:59:02;;;;;;;2.33;1.40;;;;;;;25.86;34.69;102591.88;5009006;28;96944;-80
2023/05/30 11:01:32;;;;;;;2.65;1.40;;;;;;;25.86;34.83;102600.16;4993868;28;96922;-79
2023/05/30 11:04:03;;;;;;;2.58;1.38;;;;;;;25.87;34.90;102590.00;5009566;28;96937;-79
2023/05/30 11:06:50;;;;;;;2.85;1.50;;;;;;;25.87;34.85;102587.25;5007822;28;99969;-79
2023/05/30 11:09:17;;;;;;;2.03;1.50;;;;;;;25.84;34.80;102585.69;5011409;28;97249;-80
2023/05/30 11:11:46;;;;;;;2.35;1.42;;;;;;;25.86;34.72;102591.88;5011292;28;96845;-79
2023/05/30 11:14:14;;;;;;;2.08;1.40;;;;;;;25.86;34.86;102582.75;5010497;28;97459;-79
2023/05/30 11:16:49;;;;;;;1.88;1.17;;;;;;;25.87;34.78;102581.75;5011130;28;98063;-79
2023/05/30 11:19:15;;;;;;;2.20;1.25;;;;;;;25.85;34.72;102572.78;4999627;28;96671;-80
2023/05/30 11:21:59;;;;;;;3.10;1.70;;;;;;;25.86;34.65;102572.63;5010028;28;96676;-79
2023/05/30 11:24:28;;;;;;;2.95;1.27;;;;;;;25.85;34.87;102568.16;4996360;28;96628;-79
2023/05/30 11:27:07;;;;;;;2.83;1.60;;;;;;;25.86;34.84;102571.75;5010261;28;97494;-80
2023/05/30 11:29:49;;;;;;;1.95;1.20;;;;;;;25.85;35.04;102570.91;5010468;28;96756;-79
2023/05/30 11:32:22;;;;;;;2.65;1.40;;;;;;;25.85;34.89;102570.91;4992185;28;97415;-80
2023/05/30 11:34:59;;;;;;;2.10;1.63;;;;;;;25.86;34.84;102566.25;5001675;28;97456;-79